createdAt,value
2022-07-31T08:55:57.633Z,5.82
2022-07-31T09:01:05.971Z,5.72
2022-07-31T09:06:16.662Z,5.70
2022-07-31T09:11:23.114Z,6.55
2022-07-31T09:16:30.446Z,6.50
2022-07-31T09:21:39.736Z,5.60
2022-07-31T09:26:44.465Z,7.07
2022-07-31T09:31:47.031Z,6.25
2022-07-31T09:36:50.537Z,6.05
2022-07-31T09:42:02.070Z,6.43
2022-07-31T09:47:31.353Z,5.70
2022-07-31T09:52:39.871Z,5.72
2022-07-31T09:57:53.646Z,5.97
2022-07-31T10:02:56.738Z,6.20
2022-07-31T10:08:00.575Z,6.63
2022-07-31T10:13:09.233Z,6.65
2022-07-31T10:18:12.983Z,6.63
2022-07-31T10:23:16.363Z,6.75
2022-07-31T10:28:20.611Z,7.10
2022-07-31T10:33:42.981Z,8.05
2022-07-31T10:38:48.982Z,10.15
2022-07-31T10:43:55.723Z,9.68
2022-07-31T10:49:08.724Z,7.22
2022-07-31T10:54:14.078Z,5.07
2022-07-31T10:59:28.394Z,4.95
2022-07-31T11:04:31.973Z,4.80
2022-07-31T11:09:34.478Z,5.22
2022-07-31T11:14:54.943Z,4.82
2022-07-31T11:19:57.676Z,5.40
2022-07-31T11:25:00.784Z,5.80
2022-07-31T11:30:13.173Z,6.47
2022-07-31T11:35:25.582Z,6.35
2022-07-31T11:40:28.699Z,6.57
2022-07-31T11:45:33.338Z,6.55
2022-07-31T11:50:40.447Z,6.75
2022-07-31T11:55:50.487Z,6.80
2022-07-31T12:00:59.140Z,7.50
2022-07-31T12:06:04.444Z,6.70
2022-07-31T12:11:08.232Z,7.03
2022-07-31T12:16:12.555Z,7.20
2022-07-31T12:21:15.320Z,6.75
2022-07-31T12:26:27.918Z,6.80
2022-07-31T12:31:33.658Z,6.35
2022-07-31T12:36:36.275Z,6.47
2022-07-31T12:41:42.518Z,6.78
2022-07-31T12:46:47.734Z,6.75
2022-07-31T12:51:51.489Z,7.78
2022-07-31T12:56:54.254Z,7.05
2022-07-31T13:02:06.691Z,7.13
2022-07-31T13:07:15.012Z,7.18
2022-07-31T13:12:17.571Z,7.40
2022-07-31T13:17:22.422Z,7.05
2022-07-31T13:22:24.943Z,6.00
2022-07-31T13:27:33.500Z,6.35
2022-07-31T13:32:37.901Z,6.43
2022-07-31T13:37:43.369Z,6.40
2022-07-31T13:42:46.451Z,4.23
2022-07-31T13:47:54.981Z,4.70
2022-07-31T13:53:02.201Z,4.47
2022-07-31T13:58:07.474Z,4.93
2022-07-31T14:03:29.594Z,4.70
2022-07-31T14:08:50.479Z,4.30
2022-07-31T14:13:53.180Z,4.63
2022-07-31T14:18:57.353Z,5.43
2022-07-31T14:24:00.599Z,4.50
2022-07-31T14:29:07.063Z,4.80
2022-07-31T14:34:11.377Z,4.72
2022-07-31T14:39:13.957Z,4.88
2022-07-31T14:44:21.432Z,4.38
2022-07-31T14:50:09.628Z,4.32
2022-07-31T14:54:56.432Z,4.35
2022-07-31T14:59:59.265Z,4.05
2022-07-31T15:06:41.397Z,3.45
2022-07-31T15:10:25.875Z,4.30
2022-07-31T15:15:28.687Z,3.80
2022-07-31T15:20:36.448Z,4.20
2022-07-31T15:25:41.227Z,4.60
2022-07-31T15:30:43.744Z,3.60
2022-07-31T15:35:48.785Z,3.25
2022-07-31T15:40:51.632Z,3.05
2022-07-31T15:45:55.863Z,2.88
2022-07-31T15:50:59.893Z,3.03
2022-07-31T15:56:06.507Z,2.78
2022-07-31T16:01:09.127Z,2.33
2022-07-31T16:06:14.812Z,3.00
2022-07-31T16:11:17.574Z,2.67
2022-07-31T16:16:20.442Z,2.35
2022-07-31T16:21:24.391Z,2.97
2022-07-31T16:26:27.055Z,2.80
2022-07-31T16:31:30.182Z,2.58
2022-07-31T16:36:34.811Z,2.80
2022-07-31T16:41:38.631Z,2.47
2022-07-31T16:46:57.389Z,2.30
2022-07-31T16:52:01.495Z,2.50
2022-07-31T16:57:04.515Z,2.35
2022-07-31T17:02:07.665Z,2.53
2022-07-31T17:07:11.993Z,2.35
2022-07-31T17:12:14.648Z,2.45
2022-07-31T17:17:18.891Z,2.95
2022-07-31T17:22:23.312Z,2.55
2022-07-31T17:27:27.083Z,2.33
2022-07-31T17:32:31.590Z,2.42
2022-07-31T17:37:35.971Z,2.47
2022-07-31T17:42:38.608Z,2.83
2022-07-31T17:47:41.744Z,2.50
2022-07-31T17:52:46.339Z,2.67
2022-07-31T17:57:52.090Z,2.65
2022-07-31T18:02:55.242Z,2.63
2022-07-31T18:08:00.093Z,2.67
2022-07-31T18:13:02.749Z,2.25
2022-07-31T18:18:05.572Z,2.50
2022-07-31T18:23:10.299Z,2.47
2022-07-31T18:28:13.575Z,2.33
2022-07-31T18:33:17.517Z,3.05
2022-07-31T18:38:21.658Z,2.55
2022-07-31T18:43:27.832Z,2.63
2022-07-31T18:48:34.099Z,2.80
2022-07-31T18:53:38.938Z,2.53
2022-07-31T18:58:42.031Z,2.60
2022-07-31T19:03:44.666Z,2.72
2022-07-31T19:08:49.620Z,3.00
2022-07-31T19:13:52.460Z,3.03
2022-07-31T19:18:55.161Z,2.70
2022-07-31T19:24:00.816Z,2.42
2022-07-31T19:29:03.423Z,2.30
2022-07-31T19:34:06.656Z,2.60
2022-07-31T19:39:11.341Z,3.17
2022-07-31T19:44:14.288Z,2.92
2022-07-31T19:49:17.652Z,3.42
2022-07-31T19:54:22.501Z,3.35
2022-07-31T19:59:25.804Z,3.22
2022-07-31T20:04:29.195Z,3.40
2022-07-31T20:09:33.998Z,3.15
2022-07-31T20:14:37.105Z,3.58
2022-07-31T20:20:15.718Z,4.10
2022-07-31T20:25:19.940Z,3.70
2022-07-31T20:30:25.075Z,3.80
2022-07-31T20:35:31.241Z,3.50
2022-07-31T20:40:55.448Z,3.63
2022-07-31T20:45:58.762Z,3.25
2022-07-31T20:51:11.548Z,3.78
2022-07-31T20:56:16.676Z,3.95
2022-07-31T21:01:20.132Z,4.10
2022-07-31T21:06:22.944Z,4.30
2022-07-31T21:11:31.715Z,4.25
2022-07-31T21:16:34.992Z,4.18
2022-07-31T21:21:37.836Z,4.80
2022-07-31T21:26:42.489Z,4.63
2022-07-31T21:31:50.149Z,4.60
2022-07-31T21:36:53.550Z,4.22
2022-07-31T21:41:57.984Z,4.07
2022-07-31T21:47:01.921Z,3.83
2022-07-31T21:52:07.678Z,3.92
2022-07-31T21:57:12.125Z,3.75
2022-07-31T22:02:15.365Z,3.75
2022-07-31T22:07:33.296Z,4.32
2022-07-31T22:12:37.515Z,4.15
2022-07-31T22:17:40.331Z,3.72
2022-07-31T22:22:46.340Z,3.20
2022-07-31T22:27:56.559Z,3.25
2022-07-31T22:33:05.365Z,3.03
2022-07-31T22:38:08.536Z,3.00
2022-07-31T22:44:13.153Z,3.15
2022-07-31T22:48:35.304Z,3.05
2022-07-31T22:53:38.141Z,3.13
2022-07-31T22:58:48.047Z,3.30
2022-07-31T23:03:53.715Z,3.17
2022-07-31T23:08:59.215Z,3.15
2022-07-31T23:14:03.165Z,3.30
2022-07-31T23:19:05.700Z,3.70
2022-07-31T23:24:08.518Z,3.42
2022-07-31T23:29:12.520Z,4.10
2022-07-31T23:34:17.064Z,4.20
2022-07-31T23:39:23.069Z,4.00
2022-07-31T23:44:27.261Z,3.72
2022-07-31T23:49:30.124Z,3.88
2022-07-31T23:54:32.899Z,4.00
2022-07-31T23:59:36.900Z,3.88
